Time;durP1;ratioP1;P1;durP2;ratioP2;P2;SDS_P1;SDS_P2;PMS_P1;PMS_P2;Temp;Humidity;BMP_temperature;BMP_pressure;BME280_temperature;BME280_humidity;BME280_pressure;Samples;Min_cycle;Max_cycle;Signal;HPM_P1;HPM_P2
2022/11/02 00:00:44;;;;;;;;;;;;;;;8.64;99.11;93818.84;5133559;27;19923;-74
2022/11/02 00:03:10;;;;;;;;;;;;;;;8.63;99.10;93822.38;5133402;27;19923;-74
2022/11/02 00:05:37;;;;;;;;;;;;;;;8.61;98.96;93825.13;5132664;27;20337;-74
2022/11/02 00:08:05;;;;;;;;;;;;;;;8.55;99.63;93821.53;5133185;27;19923;-75
2022/11/02 00:10:31;;;;;;;;;;;;;;;8.46;100.00;93825.13;5132953;27;19972;-75
2022/11/02 00:12:58;;;;;;;;;;;;;;;8.41;100.00;93825.69;5133082;27;20448;-75
2022/11/02 00:15:26;;;;;;;;;;;;;;;8.37;100.00;93815.97;5133062;27;19972;-75
2022/11/02 00:17:54;;;;;;;;;;;;;;;8.36;100.00;93816.94;5132899;27;20376;-74
2022/11/02 00:20:21;;;;;;;;;;;;;;;8.35;100.00;93811.06;5133171;27;20387;-74
2022/11/02 00:22:50;;;;;;;;;;;;;;;8.37;100.00;93815.97;5133152;27;19923;-74
2022/11/02 00:25:20;;;;;;;;;;;;;;;8.36;100.00;93814.41;5132982;27;20435;-74
2022/11/02 00:27:47;;;;;;;;;;;;;;;8.35;100.00;93816.19;5133126;27;20438;-74
2022/11/02 00:30:13;;;;;;;;;;;;;;;8.28;100.00;93815.28;5132922;27;19924;-74
2022/11/02 00:32:40;;;;;;;;;;;;;;;8.27;100.00;93816.28;5133020;27;19967;-75
2022/11/02 00:35:07;;;;;;;;;;;;;;;8.22;100.00;93813.44;5133018;27;20634;-74
2022/11/02 00:37:33;;;;;;;;;;;;;;;8.21;100.00;93811.88;5132352;27;20502;-74
2022/11/02 00:40:00;;;;;;;;;;;;;;;8.16;100.00;93808.06;5132993;27;19988;-74
2022/11/02 00:42:28;;;;;;;;;;;;;;;8.09;100.00;93811.53;5132604;27;19969;-74
2022/11/02 00:44:54;;;;;;;;;;;;;;;8.03;100.00;93807.94;5132738;27;19964;-74
2022/11/02 00:47:21;;;;;;;;;;;;;;;8.04;100.00;93813.84;5132900;27;19927;-74
2022/11/02 00:49:47;;;;;;;;;;;;;;;8.01;100.00;93809.88;5132458;27;20085;-74
2022/11/02 00:52:14;;;;;;;;;;;;;;;7.98;100.00;93811.03;5132070;27;19923;-74
2022/11/02 00:54:40;;;;;;;;;;;;;;;7.96;100.00;93807.84;5132560;27;20050;-74
2022/11/02 00:57:07;;;;;;;;;;;;;;;7.94;100.00;93809.00;5132508;27;19992;-73
2022/11/02 00:59:35;;;;;;;;;;;;;;;7.93;100.00;93815.09;5132348;27;19919;-74
2022/11/02 01:02:01;;;;;;;;;;;;;;;7.86;100.00;93809.88;5131989;27;19923;-74
2022/11/02 01:04:27;;;;;;;;;;;;;;;7.85;100.00;93819.34;5132282;27;20367;-74
2022/11/02 01:06:54;;;;;;;;;;;;;;;7.84;100.00;93817.75;5132066;27;19975;-74
2022/11/02 01:09:21;;;;;;;;;;;;;;;7.86;100.00;93815.81;5132177;27;19948;-74
2022/11/02 01:11:47;;;;;;;;;;;;;;;7.83;100.00;93817.94;5132601;27;19977;-74
2022/11/02 01:14:14;;;;;;;;;;;;;;;7.81;100.00;93819.84;5131926;27;19968;-73
2022/11/02 01:16:43;;;;;;;;;;;;;;;7.77;100.00;93821.97;5130940;27;19972;-74
2022/11/02 01:19:10;;;;;;;;;;;;;;;7.74;100.00;93823.13;5131483;27;19923;-73
2022/11/02 01:21:36;;;;;;;;;;;;;;;7.68;100.00;93815.38;5132230;27;19964;-73
2022/11/02 01:24:03;;;;;;;;;;;;;;;7.63;100.00;93818.44;5131717;27;19924;-73
2022/11/02 01:26:29;;;;;;;;;;;;;;;7.59;100.00;93814.66;5132073;27;19923;-74
2022/11/02 01:28:56;;;;;;;;;;;;;;;7.61;100.00;93817.84;5131892;27;19923;-74
2022/11/02 01:31:23;;;;;;;;;;;;;;;7.61;100.00;93812.72;5131964;27;20313;-78
2022/11/02 01:33:50;;;;;;;;;;;;;;;7.59;100.00;93818.00;5131652;27;20499;-80
2022/11/02 01:36:20;;;;;;;;;;;;;;;7.54;100.00;93815.19;5131632;27;19927;-76
2022/11/02 01:38:46;;;;;;;;;;;;;;;7.49;100.00;93817.47;5131567;27;19984;-75
2022/11/02 01:41:13;;;;;;;;;;;;;;;7.46;100.00;93817.84;5131562;27;19919;-75
2022/11/02 01:43:41;;;;;;;;;;;;;;;7.43;100.00;93806.19;5131451;27;19939;-76
2022/11/02 01:46:12;;;;;;;;;;;;;;;7.44;100.00;93805.22;5127416;27;19923;-75
2022/11/02 01:48:44;;;;;;;;;;;;;;;7.42;100.00;93814.03;5131726;27;19923;-75
2022/11/02 01:51:14;;;;;;;;;;;;;;;7.34;100.00;93809.78;5131376;27;19926;-75
2022/11/02 01:53:45;;;;;;;;;;;;;;;7.30;100.00;93813.66;5131277;27;20353;-75
2022/11/02 01:56:13;;;;;;;;;;;;;;;7.27;100.00;93814.00;5131405;27;19972;-75
2022/11/02 01:58:39;;;;;;;;;;;;;;;7.21;100.00;93810.38;5131402;27;19926;-75
2022/11/02 02:01:06;;;;;;;;;;;;;;;7.25;100.00;93803.97;5131530;27;20333;-75
2022/11/02 02:03:35;;;;;;;;;;;;;;;7.24;100.00;93809.25;5131113;27;19923;-75
2022/11/02 02:06:05;;;;;;;;;;;;;;;7.26;100.00;93803.00;5131427;27;19926;-75
2022/11/02 02:08:34;;;;;;;;;;;;;;;7.21;100.00;93805.28;5130792;27;19969;-75
2022/11/02 02:11:00;;;;;;;;;;;;;;;7.27;100.00;93801.25;5131399;27;20271;-75
2022/11/02 02:13:27;;;;;;;;;;;;;;;7.29;100.00;93802.66;5130921;27;19919;-75
2022/11/02 02:16:00;;;;;;;;;;;;;;;7.33;100.00;93797.97;5131169;27;20272;-76
2022/11/02 02:18:30;;;;;;;;;;;;;;;7.35;100.00;93798.59;5131252;27;19923;-76
2022/11/02 02:21:06;;;;;;;;;;;;;;;7.33;100.00;93791.09;5131116;27;19923;-75
2022/11/02 02:23:56;;;;;;;;;;;;;;;7.30;100.00;93795.75;5130954;27;20435;-75
2022/11/02 02:26:43;;;;;;;;;;;;;;;7.28;100.00;93795.16;5098521;27;19927;-75
2022/11/02 02:29:12;;;;;;;;;;;;;;;7.29;100.00;93789.06;5122069;28;20019;-75
2022/11/02 02:31:43;;;;;;;;;;;;;;;7.25;100.00;93788.63;5130862;28;19919;-75
2022/11/02 02:34:11;;;;;;;;;;;;;;;7.24;100.00;93784.50;5130563;28;19927;-75
2022/11/02 02:36:42;;;;;;;;;;;;;;;7.18;100.00;93785.19;5119532;28;20198;-75
2022/11/02 02:39:12;;;;;;;;;;;;;;;7.11;100.00;93790.19;5129837;28;19931;-75
2022/11/02 02:41:39;;;;;;;;;;;;;;;7.06;100.00;93790.72;5130505;28;19919;-75
2022/11/02 02:44:07;;;;;;;;;;;;;;;7.03;100.00;93785.94;5130417;28;19923;-74
2022/11/02 02:46:37;;;;;;;;;;;;;;;7.00;100.00;93786.31;5130106;28;20383;-74
2022/11/02 02:49:05;;;;;;;;;;;;;;;6.97;100.00;93785.84;5130540;28;20391;-75
2022/11/02 02:51:33;;;;;;;;;;;;;;;6.96;100.00;93785.06;5130423;28;20290;-74
2022/11/02 02:54:02;;;;;;;;;;;;;;;6.97;100.00;93775.63;5130120;27;19923;-73
2022/11/02 02:56:30;;;;;;;;;;;;;;;6.94;100.00;93775.00;5130468;28;20364;-74
2022/11/02 02:58:58;;;;;;;;;;;;;;;6.91;100.00;93770.22;5130255;28;20254;-73
2022/11/02 03:01:26;;;;;;;;;;;;;;;6.86;100.00;93769.97;5130410;28;19980;-74
2022/11/02 03:03:54;;;;;;;;;;;;;;;6.82;100.00;93773.84;5130051;28;19927;-73
2022/11/02 03:06:23;;;;;;;;;;;;;;;6.80;100.00;93768.09;5130398;28;19972;-74
2022/11/02 03:08:55;;;;;;;;;;;;;;;6.73;100.00;93768.00;5129717;28;19923;-74
2022/11/02 03:11:23;;;;;;;;;;;;;;;6.73;100.00;93767.19;5129915;28;19919;-74
2022/11/02 03:14:07;;;;;;;;;;;;;;;6.76;100.00;93772.75;5130266;28;20226;-74
2022/11/02 03:16:42;;;;;;;;;;;;;;;6.77;100.00;93765.91;5129747;28;19927;-74
2022/11/02 03:19:17;;;;;;;;;;;;;;;6.75;100.00;93776.28;5130281;28;20268;-74
2022/11/02 03:21:45;;;;;;;;;;;;;;;6.69;100.00;93766.75;5130229;28;20432;-74
2022/11/02 03:24:14;;;;;;;;;;;;;;;6.63;100.00;93768.22;5129692;28;20326;-74
2022/11/02 03:26:43;;;;;;;;;;;;;;;6.61;100.00;93775.25;5124275;28;19923;-74
2022/11/02 03:29:13;;;;;;;;;;;;;;;6.57;100.00;93768.91;5127947;28;19923;-74
2022/11/02 03:31:42;;;;;;;;;;;;;;;6.50;100.00;93766.25;5129741;28;19923;-74
2022/11/02 03:34:15;;;;;;;;;;;;;;;6.50;100.00;93773.13;5129724;28;19923;-74
2022/11/02 03:36:45;;;;;;;;;;;;;;;6.52;100.00;93771.16;5129747;28;19927;-74
2022/11/02 03:39:13;;;;;;;;;;;;;;;6.45;100.00;93767.72;5130527;27;19923;-74
2022/11/02 03:41:42;;;;;;;;;;;;;;;6.42;100.00;93773.97;5133376;27;19968;-74
2022/11/02 03:44:11;;;;;;;;;;;;;;;6.45;100.00;93773.63;5133493;27;19919;-74
2022/11/02 03:46:40;;;;;;;;;;;;;;;6.44;100.00;93774.59;5133790;27;19923;-74
2022/11/02 03:49:08;;;;;;;;;;;;;;;6.34;100.00;93774.81;5133157;27;19988;-74
2022/11/02 03:51:38;;;;;;;;;;;;;;;6.27;100.00;93774.69;5133186;27;19923;-74
2022/11/02 03:54:07;;;;;;;;;;;;;;;6.34;100.00;93774.03;5132926;27;20436;-74
2022/11/02 03:56:36;;;;;;;;;;;;;;;6.37;100.00;93771.13;5132673;27;19931;-74
2022/11/02 03:59:03;;;;;;;;;;;;;;;6.38;100.00;93770.16;5133337;27;19926;-74
2022/11/02 04:01:31;;;;;;;;;;;;;;;6.30;100.00;93765.91;5133292;27;19930;-74
2022/11/02 04:03:57;;;;;;;;;;;;;;;6.13;100.00;93772.84;5133146;27;19919;-74
2022/11/02 04:06:24;;;;;;;;;;;;;;;5.97;100.00;93764.28;5133275;27;19919;-74
2022/11/02 04:08:52;;;;;;;;;;;;;;;5.99;100.00;93774.34;5132697;27;19923;-74
2022/11/02 04:16:47;;;;;;;;;;;;;;;5.67;100.00;93773.50;5132922;27;20027;-74
2022/11/02 04:19:27;;;;;;;;;;;;;;;5.70;100.00;93768.09;5132195;27;20020;-75
2022/11/02 04:27:23;;;;;;;;;;;;;;;5.54;100.00;93774.81;5132683;27;19926;-75
2022/11/02 04:29:50;;;;;;;;;;;;;;;5.46;100.00;93769.78;5132744;27;19927;-75
2022/11/02 04:33:31;;;;;;;;;;;;;;;5.52;100.00;93783.59;5132452;27;19923;-75
2022/11/02 04:35:03;;;;;;;;;;;;;;;5.64;100.00;93772.09;5132201;27;19927;-74
2022/11/02 04:40:16;;;;;;;;;;;;;;;5.88;100.00;93781.38;5132228;27;20286;-75
2022/11/02 04:42:46;;;;;;;;;;;;;;;5.97;100.00;93779.59;5131662;27;19919;-75
2022/11/02 04:45:12;;;;;;;;;;;;;;;6.06;100.00;93782.16;5132323;27;20313;-74
2022/11/02 04:47:39;;;;;;;;;;;;;;;6.10;100.00;93783.38;5132450;27;19920;-75
2022/11/02 04:50:05;;;;;;;;;;;;;;;6.14;100.00;93782.91;5131789;27;19927;-75
2022/11/02 04:52:32;;;;;;;;;;;;;;;6.18;100.00;93783.34;5131567;27;19923;-74
2022/11/02 04:54:58;;;;;;;;;;;;;;;6.19;100.00;93781.59;5131536;27;19967;-74
2022/11/02 04:57:26;;;;;;;;;;;;;;;6.15;100.00;93786.22;5131882;27;20238;-74
2022/11/02 04:59:52;;;;;;;;;;;;;;;6.17;100.00;93793.72;5131932;27;19923;-74
2022/11/02 05:02:19;;;;;;;;;;;;;;;6.18;100.00;93793.56;5131415;27;20337;-74
2022/11/02 05:04:46;;;;;;;;;;;;;;;6.16;100.00;93792.94;5132081;27;19927;-74
2022/11/02 05:07:12;;;;;;;;;;;;;;;6.12;100.00;93797.56;5131461;27;19919;-74
2022/11/02 05:09:41;;;;;;;;;;;;;;;6.12;100.00;93797.56;5131982;27;19968;-74
2022/11/02 05:12:07;;;;;;;;;;;;;;;6.11;100.00;93800.31;5131651;27;20414;-75
2022/11/02 05:14:35;;;;;;;;;;;;;;;6.11;100.00;93798.53;5131721;27;19972;-74
2022/11/02 05:17:02;;;;;;;;;;;;;;;6.12;100.00;93801.88;5131518;27;19923;-75
2022/11/02 05:19:28;;;;;;;;;;;;;;;6.16;100.00;93800.59;5131716;27;20028;-75
2022/11/02 05:21:55;;;;;;;;;;;;;;;6.19;100.00;93802.00;5131638;27;19919;-75
2022/11/02 05:24:21;;;;;;;;;;;;;;;6.19;100.00;93805.34;5131339;27;19919;-74
2022/11/02 05:26:48;;;;;;;;;;;;;;;6.23;100.00;93805.81;5131534;27;20328;-74
2022/11/02 05:29:14;;;;;;;;;;;;;;;6.27;100.00;93812.97;5131360;27;19972;-74
2022/11/02 05:31:42;;;;;;;;;;;;;;;6.27;100.00;93815.53;5131511;27;20371;-76
2022/11/02 05:34:09;;;;;;;;;;;;;;;6.26;100.00;93818.22;5130634;27;20635;-76
2022/11/02 05:36:35;;;;;;;;;;;;;;;6.31;100.00;93817.72;5131590;27;20355;-76
2022/11/02 05:39:01;;;;;;;;;;;;;;;6.35;100.00;93817.22;5131673;27;19923;-76
2022/11/02 05:41:28;;;;;;;;;;;;;;;6.38;100.00;93827.09;5131386;27;19927;-76
2022/11/02 05:43:54;;;;;;;;;;;;;;;6.37;100.00;93819.59;5130740;27;20317;-76
2022/11/02 05:46:21;;;;;;;;;;;;;;;6.35;100.00;93826.63;5131533;27;19968;-76
2022/11/02 05:48:49;;;;;;;;;;;;;;;6.34;100.00;93825.84;5131625;27;19922;-76
2022/11/02 05:51:15;;;;;;;;;;;;;;;6.35;100.00;93834.28;5131826;27;20336;-76
2022/11/02 05:53:42;;;;;;;;;;;;;;;6.33;100.00;93841.31;5131429;27;19976;-76
2022/11/02 05:56:10;;;;;;;;;;;;;;;6.36;100.00;93835.88;5131439;27;19968;-76
2022/11/02 05:58:36;;;;;;;;;;;;;;;6.42;100.00;93842.84;5131260;27;19945;-75
2022/11/02 06:01:04;;;;;;;;;;;;;;;6.51;100.00;93846.16;5131288;27;20532;-75
2022/11/02 06:03:31;;;;;;;;;;;;;;;6.58;100.00;93846.28;5130703;27;20329;-75
2022/11/02 06:05:58;;;;;;;;;;;;;;;6.65;100.00;93840.34;5131167;27;20405;-75
2022/11/02 06:08:25;;;;;;;;;;;;;;;6.74;100.00;93846.19;5130752;27;20280;-75
2022/11/02 06:10:52;;;;;;;;;;;;;;;6.80;100.00;93852.34;5131136;27;19972;-76
2022/11/02 06:13:18;;;;;;;;;;;;;;;6.86;100.00;93853.44;5130954;27;19955;-75
2022/11/02 06:15:45;;;;;;;;;;;;;;;6.92;100.00;93850.22;5130872;27;19972;-75
2022/11/02 06:18:11;;;;;;;;;;;;;;;7.02;100.00;93853.34;5130697;27;19927;-75
2022/11/02 06:20:38;;;;;;;;;;;;;;;7.12;100.00;93855.66;5115994;28;19972;-75
2022/11/02 06:23:05;;;;;;;;;;;;;;;7.24;100.00;93861.16;5123552;27;19977;-75
2022/11/02 06:25:32;;;;;;;;;;;;;;;7.34;100.00;93863.47;5130252;28;19923;-75
2022/11/02 06:27:58;;;;;;;;;;;;;;;7.47;100.00;93855.19;5130796;28;19923;-76
2022/11/02 06:30:25;;;;;;;;;;;;;;;7.58;100.00;93859.88;5130773;28;20451;-75
2022/11/02 06:32:53;;;;;;;;;;;;;;;7.68;100.00;93859.63;5130939;28;19923;-75
2022/11/02 06:35:21;;;;;;;;;;;;;;;7.79;100.00;93857.59;5130660;28;19923;-76
2022/11/02 06:37:48;;;;;;;;;;;;;;;7.91;100.00;93863.09;5130931;28;20371;-75
2022/11/02 06:40:16;;;;;;;;;;;;;;;8.06;100.00;93868.97;5130729;28;20006;-76
2022/11/02 06:42:42;;;;;;;;;;;;;;;8.20;100.00;93871.72;5130931;28;20317;-76
2022/11/02 06:45:09;;;;;;;;;;;;;;;8.31;100.00;93868.69;5130807;28;19972;-75
2022/11/02 06:47:37;;;;;;;;;;;;;;;8.41;100.00;93861.53;5131094;28;19919;-75
2022/11/02 06:50:03;;;;;;;;;;;;;;;8.55;100.00;93861.69;5130716;28;19952;-75
2022/11/02 06:52:30;;;;;;;;;;;;;;;8.67;100.00;93860.25;5130763;28;19919;-75
2022/11/02 06:54:57;;;;;;;;;;;;;;;8.79;100.00;93852.88;5130579;28;19930;-74
2022/11/02 06:57:24;;;;;;;;;;;;;;;8.93;100.00;93853.00;5130667;28;19935;-75
2022/11/02 06:59:51;;;;;;;;;;;;;;;9.06;100.00;93850.56;5130435;28;19924;-75
2022/11/02 07:02:20;;;;;;;;;;;;;;;9.23;100.00;93845.97;5130324;28;19919;-75
2022/11/02 07:04:47;;;;;;;;;;;;;;;9.41;100.00;93842.19;5130672;28;19923;-74
2022/11/02 07:07:13;;;;;;;;;;;;;;;9.59;100.00;93848.59;5130079;28;19923;-74
2022/11/02 07:09:40;;;;;;;;;;;;;;;9.76;100.00;93847.31;5130482;28;20382;-75
2022/11/02 07:12:06;;;;;;;;;;;;;;;9.95;100.00;93845.06;5130671;28;19919;-75
2022/11/02 07:14:34;;;;;;;;;;;;;;;10.12;100.00;93848.09;5133251;27;19992;-75
2022/11/02 07:17:00;;;;;;;;;;;;;;;10.23;100.00;93851.91;5133938;27;19972;-74
2022/11/02 07:19:27;;;;;;;;;;;;;;;10.35;100.00;93849.59;5134272;27;19923;-75
2022/11/02 07:21:53;;;;;;;;;;;;;;;10.49;100.00;93844.50;5134287;27;19926;-75
2022/11/02 07:24:20;;;;;;;;;;;;;;;10.64;100.00;93846.94;5133945;27;19972;-75
2022/11/02 07:26:47;;;;;;;;;;;;;;;10.71;100.00;93850.31;5134365;27;19923;-75
2022/11/02 07:29:14;;;;;;;;;;;;;;;10.89;100.00;93846.38;5134047;27;19920;-75
2022/11/02 07:31:42;;;;;;;;;;;;;;;10.96;99.37;93836.91;5134241;27;19923;-75
2022/11/02 07:34:08;;;;;;;;;;;;;;;11.05;100.00;93840.88;5133759;27;19919;-75
2022/11/02 07:36:35;;;;;;;;;;;;;;;11.16;98.21;93841.28;5133815;27;20375;-75
2022/11/02 07:39:01;;;;;;;;;;;;;;;11.33;98.65;93839.91;5134051;27;19919;-75
2022/11/02 07:41:28;;;;;;;;;;;;;;;11.49;97.48;93843.06;5133826;27;20379;-75
2022/11/02 07:43:54;;;;;;;;;;;;;;;11.62;95.76;93844.84;5133759;27;19919;-76
2022/11/02 07:46:21;;;;;;;;;;;;;;;11.56;95.28;93846.41;5133619;27;19927;-76
2022/11/02 07:48:49;;;;;;;;;;;;;;;11.56;94.10;93838.69;5133717;27;19919;-76
2022/11/02 07:51:15;;;;;;;;;;;;;;;11.66;94.23;93842.66;5133444;27;19919;-75
2022/11/02 07:53:42;;;;;;;;;;;;;;;11.77;93.48;93840.22;5133678;27;19988;-75
2022/11/02 07:56:08;;;;;;;;;;;;;;;11.98;92.66;93848.72;5133844;27;19923;-76
2022/11/02 07:58:35;;;;;;;;;;;;;;;12.05;90.82;93840.19;5133332;27;20340;-76
2022/11/02 08:01:02;;;;;;;;;;;;;;;12.21;89.27;93839.75;5133773;27;19927;-76
2022/11/02 08:03:28;;;;;;;;;;;;;;;12.36;89.38;93842.06;5133678;27;19988;-76
2022/11/02 08:05:56;;;;;;;;;;;;;;;12.63;88.27;93836.78;5133066;27;19923;-76
2022/11/02 08:08:23;;;;;;;;;;;;;;;12.64;85.42;93830.63;5133099;27;19980;-75
2022/11/02 08:10:50;;;;;;;;;;;;;;;12.82;86.96;93829.94;5133505;27;19923;-75
2022/11/02 08:13:18;;;;;;;;;;;;;;;13.12;86.20;93825.19;5133577;27;19919;-75
2022/11/02 08:15:45;;;;;;;;;;;;;;;13.38;81.77;93833.72;5133013;27;19923;-75
2022/11/02 08:18:12;;;;;;;;;;;;;;;13.51;80.58;93830.28;5132953;27;19923;-75
2022/11/02 08:20:39;;;;;;;;;;;;;;;13.69;79.30;93827.72;5132800;27;19919;-75
2022/11/02 08:23:07;;;;;;;;;;;;;;;13.78;77.52;93828.22;5132987;27;19920;-75
2022/11/02 08:25:34;;;;;;;;;;;;;;;13.86;76.97;93817.63;5131856;27;20006;-75
2022/11/02 08:28:01;;;;;;;;;;;;;;;14.07;77.46;93823.34;5133212;27;19919;-75
2022/11/02 08:30:28;;;;;;;;;;;;;;;14.35;77.86;93819.47;5133000;27;19953;-76
2022/11/02 08:32:55;;;;;;;;;;;;;;;14.64;76.29;93816.31;5132989;27;19923;-76
2022/11/02 08:35:22;;;;;;;;;;;;;;;14.84;73.42;93821.25;5132867;27;20383;-73
2022/11/02 08:37:52;;;;;;;;;;;;;;;14.95;71.43;93823.06;5132778;27;19941;-73
2022/11/02 08:40:20;;;;;;;;;;;;;;;15.11;72.32;93818.28;5133002;27;19919;-73
2022/11/02 08:42:47;;;;;;;;;;;;;;;15.29;70.96;93821.78;5132806;27;20341;-73
2022/11/02 08:45:13;;;;;;;;;;;;;;;15.54;70.26;93818.19;5132632;27;19923;-73
2022/11/02 08:47:40;;;;;;;;;;;;;;;15.82;73.12;93809.75;5132663;27;19919;-73
2022/11/02 08:50:07;;;;;;;;;;;;;;;16.03;70.46;93813.56;5132474;27;19923;-73
2022/11/02 08:52:35;;;;;;;;;;;;;;;16.06;66.09;93817.50;5132489;27;19926;-73
2022/11/02 08:55:01;;;;;;;;;;;;;;;16.16;65.98;93822.88;5132456;27;19919;-73
2022/11/02 08:57:29;;;;;;;;;;;;;;;16.30;64.53;93817.47;5132644;27;19923;-73
2022/11/02 08:59:55;;;;;;;;;;;;;;;16.42;64.35;93814.81;5132577;27;19919;-74
2022/11/02 09:02:22;;;;;;;;;;;;;;;16.60;66.63;93815.66;5117956;27;19968;-74
2022/11/02 09:04:48;;;;;;;;;;;;;;;16.88;68.31;93812.25;5132369;27;19972;-74
2022/11/02 09:07:15;;;;;;;;;;;;;;;17.15;66.29;93803.09;5131955;27;19927;-74
2022/11/02 09:09:41;;;;;;;;;;;;;;;17.27;63.91;93814.19;5131777;27;19920;-75
2022/11/02 09:12:08;;;;;;;;;;;;;;;17.35;61.49;93813.00;5132154;27;19962;-73
2022/11/02 09:14:36;;;;;;;;;;;;;;;17.21;60.96;93810.75;5132262;27;19919;-73
2022/11/02 09:17:02;;;;;;;;;;;;;;;17.46;60.57;93804.34;5132261;27;19928;-74
2022/11/02 09:19:29;;;;;;;;;;;;;;;17.49;62.49;93801.28;5131412;27;19965;-74
2022/11/02 09:21:55;;;;;;;;;;;;;;;17.55;62.28;93794.34;5131677;27;20379;-73
2022/11/02 09:24:22;;;;;;;;;;;;;;;17.89;60.39;93794.28;5131707;27;19919;-73
2022/11/02 09:26:48;;;;;;;;;;;;;;;18.11;60.73;93796.13;5131994;27;19927;-74
2022/11/02 09:29:15;;;;;;;;;;;;;;;18.19;60.24;93789.72;5131784;27;19927;-73
2022/11/02 09:31:43;;;;;;;;;;;;;;;18.28;58.30;93800.47;5131911;27;19987;-74
2022/11/02 09:34:09;;;;;;;;;;;;;;;18.29;58.46;93796.84;5130732;27;20012;-74
2022/11/02 09:36:35;;;;;;;;;;;;;;;18.47;59.79;93795.72;5111182;27;19924;-73
2022/11/02 09:39:02;;;;;;;;;;;;;;;18.68;59.59;93788.13;5110583;28;20277;-73
2022/11/02 09:41:33;;;;;;;;;;;;;;;18.83;59.38;93780.47;5110678;28;19923;-73
2022/11/02 09:44:02;;;;;;;;;;;;;;;19.07;58.26;93780.16;5110334;28;19972;-73
2022/11/02 09:46:31;;;;;;;;;;;;;;;19.33;58.64;93771.75;5110318;28;19923;-73
2022/11/02 09:49:01;;;;;;;;;;;;;;;19.45;57.03;93771.59;5110568;28;19988;-73
2022/11/02 09:51:29;;;;;;;;;;;;;;;19.71;58.28;93771.72;5110526;28;19992;-73
2022/11/02 09:53:59;;;;;;;;;;;;;;;19.97;56.96;93766.66;5111423;27;19924;-73
2022/11/02 09:56:26;;;;;;;;;;;;;;;20.17;56.16;93760.72;5110862;27;19923;-73
2022/11/02 09:58:56;;;;;;;;;;;;;;;20.43;55.31;93758.97;5110421;28;19988;-73
2022/11/02 10:01:32;;;;;;;;;;;;;;;20.65;52.64;93762.44;5110408;28;19976;-73
2022/11/02 10:04:15;;;;;;;;;;;;;;;20.91;51.58;93757.22;5110466;28;19931;-74
2022/11/02 10:06:45;;;;;;;;;;;;;;;21.09;47.41;93753.31;5110018;28;19976;-73
2022/11/02 10:09:16;;;;;;;;;;;;;;;21.27;50.08;93735.53;5109484;28;19923;-73
2022/11/02 10:11:47;;;;;;;;;;;;;;;21.41;45.52;93738.38;5110001;28;20272;-74
2022/11/02 10:14:17;;;;;;;;;;;;;;;21.51;45.35;93727.16;5120417;27;19926;-75
2022/11/02 10:23:25;;;;;;;12.60;4.63;;;;;;;21.31;43.79;93705.22;5135402;27;20361;-74
2022/11/02 10:25:52;;;;;;;12.65;4.35;;;;;;;21.48;43.53;93700.47;5121822;28;20052;-73
2022/11/02 10:28:24;;;;;;;10.68;3.30;;;;;;;21.75;41.23;93699.38;5114667;28;20072;-74
2022/11/02 10:30:53;;;;;;;10.75;2.92;;;;;;;21.72;40.11;93699.91;5120839;27;20044;-74
2022/11/02 10:33:26;;;;;;;11.10;3.83;;;;;;;21.70;39.90;93693.38;5121234;28;20645;-73
2022/11/02 10:36:09;;;;;;;6.80;2.67;;;;;;;21.71;39.80;93681.91;5127662;27;20130;-74
2022/11/02 10:38:48;;;;;;;10.25;2.72;;;;;;;22.04;42.68;93679.66;5127668;27;20051;-74
2022/11/02 10:41:29;;;;;;;24.33;3.47;;;;;;;22.23;41.17;93682.41;5127839;27;20107;-74
2022/11/02 10:44:12;;;;;;;19.75;5.22;;;;;;;22.43;43.24;93675.47;5127705;27;20047;-74
2022/11/02 10:46:49;;;;;;;53.75;5.75;;;;;;;22.66;41.90;93666.19;5127507;27;20051;-74
2022/11/02 10:49:38;;;;;;;30.30;5.18;;;;;;;22.86;41.87;93664.44;5127119;28;20120;-74
2022/11/02 10:52:05;;;;;;;8.95;2.90;;;;;;;22.89;38.82;93663.91;5112284;28;20104;-74
2022/11/02 10:54:33;;;;;;;8.60;2.92;;;;;;;22.87;37.81;93660.75;5113290;28;20040;-74
2022/11/02 10:57:00;;;;;;;16.17;3.70;;;;;;;22.93;40.43;93654.44;5106672;28;20098;-74
2022/11/02 10:59:27;;;;;;;9.00;3.25;;;;;;;23.05;40.68;93648.81;5106590;28;20093;-75
2022/11/02 11:02:06;;;;;;;9.55;3.15;;;;;;;23.01;38.84;93649.66;5106694;28;20105;-74
2022/11/02 11:04:34;;;;;;;12.68;3.55;;;;;;;22.81;37.92;93648.75;5106596;28;20078;-73
2022/11/02 11:07:06;;;;;;;12.60;2.70;;;;;;;22.76;37.25;93641.75;5106860;28;20048;-74
2022/11/02 11:09:49;;;;;;;11.52;2.83;;;;;;;22.95;38.35;93636.59;5095484;28;20048;-75
2022/11/02 11:12:21;;;;;;;7.80;3.00;;;;;;;23.09;37.98;93634.09;5087150;28;20110;-75
2022/11/02 11:14:52;;;;;;;9.57;2.67;;;;;;;23.30;38.75;93630.47;5086002;28;20037;-76
2022/11/02 11:17:22;;;;;;;13.65;3.00;;;;;;;23.41;37.46;93631.19;5086053;28;20052;-76
2022/11/02 11:19:51;;;;;;;10.75;2.60;;;;;;;23.49;37.27;93620.84;5086002;28;20044;-75
2022/11/02 11:22:28;;;;;;;12.50;3.55;;;;;;;23.59;36.92;93619.94;5085857;28;20753;-75
2022/11/02 11:25:21;;;;;;;7.95;3.13;;;;;;;23.56;36.59;93623.13;5096704;28;20508;-74
2022/11/02 11:27:49;;;;;;;11.63;3.00;;;;;;;23.58;36.54;93620.22;5106636;28;20150;-74
2022/11/02 11:30:25;;;;;;;8.07;2.40;;;;;;;23.25;35.37;93615.59;5105781;28;20050;-75
2022/11/02 11:32:52;;;;;;;12.57;3.40;;;;;;;23.13;34.96;93612.59;5089388;28;20098;-75
2022/11/02 11:35:20;;;;;;;9.73;2.13;;;;;;;22.93;34.36;93596.00;5086936;28;20048;-75
2022/11/02 11:37:49;;;;;;;7.13;2.50;;;;;;;22.95;34.68;93606.97;5092347;28;20040;-75
2022/11/02 11:40:21;;;;;;;6.72;2.42;;;;;;;23.11;37.07;93598.97;5092142;28;20047;-75
2022/11/02 11:42:59;;;;;;;9.02;2.80;;;;;;;23.31;36.56;93598.78;5092608;28;20054;-74
2022/11/02 11:45:27;;;;;;;11.68;3.17;;;;;;;23.49;37.06;93589.41;5092102;28;20052;-74
2022/11/02 11:47:58;;;;;;;7.90;2.42;;;;;;;23.57;37.08;93577.50;5091465;28;20085;-74
2022/11/02 11:50:25;;;;;;;6.78;2.63;;;;;;;23.61;36.00;93568.00;5091925;28;20047;-74
2022/11/02 11:53:22;;;;;;;8.10;2.78;;;;;;;23.17;34.17;93575.06;5092125;28;20094;-75
2022/11/02 11:55:52;;;;;;;8.88;3.25;;;;;;;23.22;34.27;93580.25;5091631;28;20086;-75
2022/11/02 11:58:21;;;;;;;12.68;2.78;;;;;;;23.38;36.18;93572.25;5091323;28;20044;-75
2022/11/02 12:01:09;;;;;;;7.72;2.30;;;;;;;23.65;36.02;93581.31;5091915;28;20044;-74
2022/11/02 12:03:50;;;;;;;5.88;2.20;;;;;;;23.50;32.01;93553.47;5090825;28;20105;-75
2022/11/02 12:06:25;;;;;;;6.65;2.17;;;;;;;23.37;33.20;93547.06;5091350;28;20482;-75
2022/11/02 12:08:57;;;;;;;12.40;3.17;;;;;;;23.58;33.14;93563.31;5091764;28;20055;-75
2022/11/02 12:11:38;;;;;;;10.93;2.00;;;;;;;23.61;31.80;93564.59;5091685;28;20040;-75
2022/11/02 12:14:16;;;;;;;6.43;2.05;;;;;;;23.55;33.56;93539.53;5092163;28;20101;-74
2022/11/02 12:17:00;;;;;;;9.00;2.58;;;;;;;23.56;33.54;93549.69;5092008;28;20048;-74
2022/11/02 12:19:37;;;;;;;6.18;2.38;;;;;;;23.54;33.68;93546.59;5091888;28;20040;-75
2022/11/02 12:22:18;;;;;;;8.38;2.05;;;;;;;23.41;33.31;93524.47;5089186;28;20049;-76
2022/11/02 12:25:02;;;;;;;9.85;2.53;;;;;;;23.65;33.77;93541.22;5081725;28;20519;-74
2022/11/02 12:27:42;;;;;;;6.53;3.07;;;;;;;23.59;33.05;93550.97;5086866;28;20123;-74
2022/11/02 12:30:14;;;;;;;10.77;2.45;;;;;;;23.72;32.65;93542.41;5090443;28;20289;-74
2022/11/02 12:33:28;;;;;;;11.98;2.63;;;;;;;23.50;35.19;93493.16;5090797;28;20071;-74
2022/11/02 12:36:04;;;;;;;8.27;2.22;;;;;;;23.90;33.83;93529.56;5063342;28;20040;-74
2022/11/02 12:38:56;;;;;;;6.68;2.80;;;;;;;23.79;33.48;93505.31;5090971;28;20546;-74
2022/11/02 12:41:43;;;;;;;7.75;2.50;;;;;;;23.91;33.18;93525.88;5087508;28;20060;-74
2022/11/02 12:44:31;;;;;;;5.47;2.22;;;;;;;24.00;34.10;93524.19;5090581;28;20090;-74
2022/11/02 12:47:09;;;;;;;8.27;1.98;;;;;;;24.01;33.52;93517.84;5090699;28;20439;-74
2022/11/02 12:49:45;;;;;;;5.40;1.83;;;;;;;23.67;32.44;93524.13;5090219;28;20056;-74
2022/11/02 12:52:26;;;;;;;8.52;1.95;;;;;;;23.55;33.18;93513.31;5091170;28;20144;-74
2022/11/02 12:54:56;;;;;;;6.28;2.22;;;;;;;23.54;33.49;93502.03;5091014;28;20113;-74
2022/11/02 12:57:27;;;;;;;15.35;2.70;;;;;;;23.51;33.27;93509.69;5091037;28;20074;-74
2022/11/02 13:00:03;;;;;;;8.75;3.10;;;;;;;23.46;34.89;93502.66;5090680;28;20660;-74
2022/11/02 13:02:36;;;;;;;9.82;2.80;;;;;;;23.57;35.54;93501.47;5090575;28;20040;-74